Time;durP1;ratioP1;P1;durP2;ratioP2;P2;SDS_P1;SDS_P2;PMS_P1;PMS_P2;Temp;Humidity;BMP_temperature;BMP_pressure;BME280_temperature;BME280_humidity;BME280_pressure;Samples;Min_cycle;Max_cycle;Signal;HPM_P1;HPM_P2
2024/01/05 00:00:17;;;;;;;29.15;12.32;;;;;;;;;;5003862;28;20226;-57
2024/01/05 00:02:44;;;;;;;27.05;12.30;;;;;;;;;;5003926;28;20079;-53
2024/01/05 00:05:10;;;;;;;28.88;13.40;;;;;;;;;;5004332;28;20034;-54
2024/01/05 00:07:37;;;;;;;26.20;12.35;;;;;;;;;;5004518;28;20117;-53
2024/01/05 00:10:04;;;;;;;23.30;13.02;;;;;;;;;;5003750;28;20037;-55
2024/01/05 00:12:30;;;;;;;39.53;14.02;;;;;;;;;;5004560;28;20019;-54
2024/01/05 00:14:57;;;;;;;31.17;13.95;;;;;;;;;;5004388;28;20102;-52
2024/01/05 00:17:23;;;;;;;22.05;12.43;;;;;;;;;;5004734;28;20029;-56
2024/01/05 00:19:50;;;;;;;23.10;12.27;;;;;;;;;;5003959;28;20033;-51
2024/01/05 00:22:17;;;;;;;26.75;11.75;;;;;;;;;;5004574;28;20085;-55
2024/01/05 00:24:43;;;;;;;28.02;11.98;;;;;;;;;;5003956;28;20397;-53
2024/01/05 00:27:10;;;;;;;21.25;10.38;;;;;;;;;;5004570;28;20077;-56
2024/01/05 00:29:38;;;;;;;36.55;11.23;;;;;;;;;;5004492;28;20030;-54
2024/01/05 00:32:04;;;;;;;36.13;10.25;;;;;;;;;;5007915;28;20080;-57
2024/01/05 00:34:31;;;;;;;28.60;10.38;;;;;;;;;;5007539;28;20313;-54
2024/01/05 00:36:58;;;;;;;18.80;9.48;;;;;;;;;;5008041;28;20041;-50
2024/01/05 00:39:24;;;;;;;16.98;9.40;;;;;;;;;;5007540;28;20034;-55
2024/01/05 00:41:51;;;;;;;17.73;9.10;;;;;;;;;;5007686;28;20026;-55
2024/01/05 00:44:17;;;;;;;17.75;8.63;;;;;;;;;;5007796;28;20353;-57
2024/01/05 00:46:44;;;;;;;16.63;8.88;;;;;;;;;;5007615;28;20198;-53
2024/01/05 00:49:11;;;;;;;18.88;9.00;;;;;;;;;;5007459;28;20030;-53
2024/01/05 00:51:37;;;;;;;11.60;8.15;;;;;;;;;;5007452;28;20302;-53
2024/01/05 00:54:04;;;;;;;15.90;8.43;;;;;;;;;;5007071;28;20211;-53
2024/01/05 00:56:30;;;;;;;13.75;8.65;;;;;;;;;;5007739;28;20022;-51
2024/01/05 00:58:57;;;;;;;17.15;8.40;;;;;;;;;;5007356;28;20046;-51
2024/01/05 01:01:24;;;;;;;15.90;8.45;;;;;;;;;;5007632;28;20042;-55
2024/01/05 01:03:50;;;;;;;16.17;8.43;;;;;;;;;;5007301;28;20053;-52
2024/01/05 01:06:17;;;;;;;20.30;8.73;;;;;;;;;;5007456;28;20045;-52
2024/01/05 01:08:43;;;;;;;18.70;8.52;;;;;;;;;;5007198;28;20345;-51
2024/01/05 01:11:13;;;;;;;19.80;8.82;;;;;;;;;;5007067;28;20026;-51
2024/01/05 01:13:40;;;;;;;19.42;8.73;;;;;;;;;;5007007;28;20326;-50
2024/01/05 01:16:07;;;;;;;25.90;9.10;;;;;;;;;;5007199;28;20247;-51
2024/01/05 01:18:33;;;;;;;15.38;8.57;;;;;;;;;;5006877;28;20339;-54
2024/01/05 01:21:00;;;;;;;21.23;8.90;;;;;;;;;;5007362;28;20022;-54
2024/01/05 01:23:27;;;;;;;12.77;9.02;;;;;;;;;;5006783;28;20053;-58
2024/01/05 01:25:53;;;;;;;20.40;9.93;;;;;;;;;;5006769;28;20030;-54
2024/01/05 01:28:20;;;;;;;12.30;9.00;;;;;;;;;;5006865;28;20086;-51
2024/01/05 01:30:46;;;;;;;19.05;9.75;;;;;;;;;;5006912;28;20313;-51
2024/01/05 01:33:13;;;;;;;13.10;9.38;;;;;;;;;;5006516;28;20330;-54
2024/01/05 01:35:39;;;;;;;13.65;9.40;;;;;;;;;;5006600;28;20042;-60
2024/01/05 01:38:06;;;;;;;16.35;9.10;;;;;;;;;;5006523;28;20026;-56
2024/01/05 01:40:33;;;;;;;10.43;8.38;;;;;;;;;;5005939;28;20082;-54
2024/01/05 01:42:59;;;;;;;11.95;8.80;;;;;;;;;;5007065;28;20026;-56
2024/01/05 01:45:26;;;;;;;18.13;8.88;;;;;;;;;;5006340;28;20022;-54
2024/01/05 01:47:53;;;;;;;17.60;8.60;;;;;;;;;;5006464;28;20278;-52
2024/01/05 01:50:19;;;;;;;15.32;8.35;;;;;;;;;;4989306;28;20018;-53
2024/01/05 01:52:49;;;;;;;11.80;8.43;;;;;;;;;;4989563;28;20037;-51
2024/01/05 01:55:16;;;;;;;15.40;8.30;;;;;;;;;;5006230;28;20048;-55
2024/01/05 01:57:43;;;;;;;14.50;7.63;;;;;;;;;;5006791;28;20022;-51
2024/01/05 02:00:10;;;;;;;17.25;8.43;;;;;;;;;;5006269;28;20018;-52
2024/01/05 02:02:37;;;;;;;20.75;8.55;;;;;;;;;;5005905;28;20026;-57
2024/01/05 02:05:05;;;;;;;14.77;8.50;;;;;;;;;;5006316;28;20027;-53
2024/01/05 02:07:32;;;;;;;14.45;8.23;;;;;;;;;;5006486;28;20210;-55
2024/01/05 02:09:58;;;;;;;12.48;7.55;;;;;;;;;;5005978;28;20318;-56
2024/01/05 02:12:25;;;;;;;15.60;8.43;;;;;;;;;;5005877;28;20246;-55
2024/01/05 02:14:51;;;;;;;15.23;7.70;;;;;;;;;;5006089;28;20027;-53
2024/01/05 02:17:27;;;;;;;11.13;8.13;;;;;;;;;;5006418;28;20081;-56
2024/01/05 02:19:55;;;;;;;23.70;9.65;;;;;;;;;;5006232;28;20266;-55
2024/01/05 02:22:23;;;;;;;17.60;9.30;;;;;;;;;;5006417;28;20252;-54
2024/01/05 02:24:50;;;;;;;12.95;8.07;;;;;;;;;;4988553;28;20065;-56
2024/01/05 02:27:17;;;;;;;14.50;8.13;;;;;;;;;;5006241;28;20033;-53
2024/01/05 02:29:43;;;;;;;13.15;7.97;;;;;;;;;;5005765;28;20029;-53
2024/01/05 02:32:10;;;;;;;13.43;7.70;;;;;;;;;;5005899;28;20056;-52
2024/01/05 02:34:36;;;;;;;22.00;7.85;;;;;;;;;;5005952;28;20022;-57
2024/01/05 02:37:03;;;;;;;18.50;7.18;;;;;;;;;;5006298;28;20394;-56
2024/01/05 02:39:29;;;;;;;9.85;6.80;;;;;;;;;;5003902;28;20241;-54
2024/01/05 02:41:56;;;;;;;12.02;6.47;;;;;;;;;;5004435;28;20206;-54
2024/01/05 02:44:22;;;;;;;9.18;6.57;;;;;;;;;;5005747;28;20110;-53
2024/01/05 02:46:49;;;;;;;15.68;7.15;;;;;;;;;;5000894;28;20029;-57
2024/01/05 02:49:16;;;;;;;10.10;6.28;;;;;;;;;;4996523;28;20030;-54
2024/01/05 02:51:43;;;;;;;9.15;7.15;;;;;;;;;;5005153;28;20077;-53
2024/01/05 02:54:09;;;;;;;9.90;6.68;;;;;;;;;;5004415;28;20309;-54
2024/01/05 02:56:36;;;;;;;12.48;6.38;;;;;;;;;;5002545;28;20020;-56
2024/01/05 02:59:05;;;;;;;11.52;7.28;;;;;;;;;;4978977;28;20030;-54
2024/01/05 03:01:31;;;;;;;8.95;7.50;;;;;;;;;;5005077;28;20049;-48
2024/01/05 03:04:00;;;;;;;11.95;7.45;;;;;;;;;;5004896;28;20085;-47
2024/01/05 03:06:27;;;;;;;11.35;7.15;;;;;;;;;;5004587;28;20025;-56
2024/01/05 03:08:53;;;;;;;10.95;6.90;;;;;;;;;;4998097;28;20037;-49
2024/01/05 03:11:20;;;;;;;9.18;6.95;;;;;;;;;;4990414;28;20313;-55
2024/01/05 03:13:46;;;;;;;17.95;7.30;;;;;;;;;;4985308;28;20365;-54
2024/01/05 03:16:13;;;;;;;13.73;7.45;;;;;;;;;;4985235;28;20105;-54
2024/01/05 03:18:40;;;;;;;11.65;7.68;;;;;;;;;;4985177;28;20030;-60
2024/01/05 03:21:06;;;;;;;12.38;7.53;;;;;;;;;;4985367;28;20030;-56
2024/01/05 03:23:33;;;;;;;8.60;7.68;;;;;;;;;;4984881;28;20114;-53
2024/01/05 03:25:59;;;;;;;9.43;7.18;;;;;;;;;;4986932;28;20354;-57
2024/01/05 03:28:26;;;;;;;9.68;7.13;;;;;;;;;;4993902;28;20325;-51
2024/01/05 03:30:53;;;;;;;12.18;7.82;;;;;;;;;;5004492;28;20090;-53
2024/01/05 03:33:23;;;;;;;15.45;8.25;;;;;;;;;;5001252;28;20085;-60
2024/01/05 03:35:49;;;;;;;15.20;8.35;;;;;;;;;;5004533;28;20029;-52
2024/01/05 03:38:16;;;;;;;16.77;8.07;;;;;;;;;;4994984;28;20077;-55
2024/01/05 03:40:42;;;;;;;11.35;7.90;;;;;;;;;;4985021;28;20019;-53
2024/01/05 03:43:09;;;;;;;11.88;7.18;;;;;;;;;;4968885;28;20030;-51
2024/01/05 03:45:36;;;;;;;11.50;7.47;;;;;;;;;;4984967;28;20019;-52
2024/01/05 03:48:03;;;;;;;9.18;6.97;;;;;;;;;;4993225;28;20061;-53
2024/01/05 03:50:29;;;;;;;14.80;7.50;;;;;;;;;;4998290;28;20023;-54
2024/01/05 03:52:56;;;;;;;13.65;7.18;;;;;;;;;;4995075;28;20038;-53
2024/01/05 03:55:23;;;;;;;14.40;7.40;;;;;;;;;;5007271;28;20017;-51
2024/01/05 03:57:49;;;;;;;12.27;7.28;;;;;;;;;;5007881;28;20098;-55
2024/01/05 04:00:16;;;;;;;14.13;7.57;;;;;;;;;;5000319;28;20238;-55
2024/01/05 04:02:43;;;;;;;14.48;7.38;;;;;;;;;;5015522;28;20225;-57
2024/01/05 04:05:09;;;;;;;12.27;6.97;;;;;;;;;;5027076;28;20089;-56
2024/01/05 04:07:36;;;;;;;12.15;6.95;;;;;;;;;;5028293;28;20018;-57
2024/01/05 04:10:03;;;;;;;10.70;6.90;;;;;;;;;;5027511;28;20213;-52
2024/01/05 04:12:29;;;;;;;10.30;7.15;;;;;;;;;;5028025;28;20030;-54
2024/01/05 04:14:56;;;;;;;8.85;6.53;;;;;;;;;;5027679;28;20085;-53
2024/01/05 04:17:22;;;;;;;9.68;6.75;;;;;;;;;;5027835;28;20022;-55
2024/01/05 04:19:49;;;;;;;7.72;6.50;;;;;;;;;;4992342;28;20072;-54
2024/01/05 04:22:16;;;;;;;8.40;6.65;;;;;;;;;;4998902;28;20031;-58
2024/01/05 04:24:42;;;;;;;10.32;6.75;;;;;;;;;;4988071;28;20078;-56
2024/01/05 04:27:09;;;;;;;9.98;6.85;;;;;;;;;;4988797;28;20026;-55
2024/01/05 04:29:35;;;;;;;9.60;6.90;;;;;;;;;;4988325;28;20222;-54
2024/01/05 04:32:02;;;;;;;9.05;6.78;;;;;;;;;;4988337;28;20258;-54
2024/01/05 04:34:28;;;;;;;10.18;6.95;;;;;;;;;;4988247;28;20019;-51
2024/01/05 04:36:55;;;;;;;7.53;6.72;;;;;;;;;;4988606;28;20049;-53
2024/01/05 04:39:21;;;;;;;9.25;6.78;;;;;;;;;;4988083;28;20025;-55
2024/01/05 04:41:48;;;;;;;8.32;6.47;;;;;;;;;;4988478;28;20046;-57
2024/01/05 04:44:15;;;;;;;8.60;6.43;;;;;;;;;;4988040;28;20050;-55
2024/01/05 04:46:41;;;;;;;8.88;6.00;;;;;;;;;;4988078;28;20129;-54
2024/01/05 04:49:08;;;;;;;8.57;6.10;;;;;;;;;;4988101;28;20337;-53
2024/01/05 04:51:34;;;;;;;7.32;6.15;;;;;;;;;;4988167;28;20251;-52
2024/01/05 04:54:02;;;;;;;9.65;6.43;;;;;;;;;;4994687;28;20337;-56
2024/01/05 04:56:29;;;;;;;9.05;6.35;;;;;;;;;;4991608;28;20357;-52
2024/01/05 04:58:55;;;;;;;10.90;5.78;;;;;;;;;;4987915;28;20219;-51
2024/01/05 05:01:22;;;;;;;10.35;6.00;;;;;;;;;;4987698;28;20046;-57
2024/01/05 05:03:49;;;;;;;9.60;5.93;;;;;;;;;;4987776;28;20030;-55
2024/01/05 05:06:15;;;;;;;8.45;5.93;;;;;;;;;;4987629;28;20023;-55
2024/01/05 05:08:42;;;;;;;6.55;5.93;;;;;;;;;;4987661;28;20038;-52
2024/01/05 05:11:08;;;;;;;9.73;6.03;;;;;;;;;;4987628;28;20046;-53
2024/01/05 05:13:35;;;;;;;7.60;5.90;;;;;;;;;;4987512;28;20026;-53
2024/01/05 05:16:01;;;;;;;7.60;5.70;;;;;;;;;;4986843;28;20026;-53
2024/01/05 05:18:28;;;;;;;6.35;5.68;;;;;;;;;;4987344;28;20023;-53
2024/01/05 05:20:55;;;;;;;9.30;5.82;;;;;;;;;;4987711;28;20303;-52
2024/01/05 05:23:21;;;;;;;6.47;5.40;;;;;;;;;;4990398;28;20031;-54
2024/01/05 05:25:48;;;;;;;7.95;5.72;;;;;;;;;;4998004;28;20031;-56
2024/01/05 05:28:14;;;;;;;7.28;5.95;;;;;;;;;;5001389;28;20030;-59
2024/01/05 05:30:41;;;;;;;9.88;5.95;;;;;;;;;;4995767;28;20022;-59
2024/01/05 05:33:08;;;;;;;7.75;5.57;;;;;;;;;;4987076;28;20034;-56
2024/01/05 05:35:35;;;;;;;7.80;5.82;;;;;;;;;;4987240;28;20014;-52
2024/01/05 05:38:04;;;;;;;8.88;5.95;;;;;;;;;;4995151;28;20275;-56
2024/01/05 05:40:31;;;;;;;9.73;6.18;;;;;;;;;;4996136;28;20053;-53
2024/01/05 05:42:58;;;;;;;8.02;6.57;;;;;;;;;;4988903;28;20035;-50
2024/01/05 05:45:26;;;;;;;7.70;6.13;;;;;;;;;;5002173;28;20022;-56
2024/01/05 05:47:52;;;;;;;7.95;5.63;;;;;;;;;;5011454;28;20030;-54
2024/01/05 05:50:19;;;;;;;9.32;6.00;;;;;;;;;;5020697;28;20078;-55
2024/01/05 05:52:46;;;;;;;8.63;5.97;;;;;;;;;;5025933;28;20340;-59
2024/01/05 05:55:13;;;;;;;8.25;5.85;;;;;;;;;;5003636;28;20564;-54
2024/01/05 05:57:40;;;;;;;9.32;5.85;;;;;;;;;;4997880;28;20086;-56
2024/01/05 06:00:07;;;;;;;8.77;5.68;;;;;;;;;;5004731;28;20021;-53
2024/01/05 06:02:33;;;;;;;7.63;5.93;;;;;;;;;;4997112;28;20030;-55
2024/01/05 06:05:00;;;;;;;9.40;6.20;;;;;;;;;;4998037;28;20085;-55
2024/01/05 06:07:27;;;;;;;6.90;6.15;;;;;;;;;;4994880;28;20026;-57
2024/01/05 06:09:53;;;;;;;6.18;5.50;;;;;;;;;;4991680;28;20026;-55
2024/01/05 06:12:20;;;;;;;8.70;6.25;;;;;;;;;;4999032;28;20097;-57
2024/01/05 06:14:47;;;;;;;9.00;6.10;;;;;;;;;;4999051;28;20038;-56
2024/01/05 06:17:14;;;;;;;7.38;6.00;;;;;;;;;;4995005;28;20194;-57
2024/01/05 06:19:40;;;;;;;8.10;6.55;;;;;;;;;;4997013;28;20025;-57
2024/01/05 06:22:07;;;;;;;7.68;5.40;;;;;;;;;;5001296;28;20030;-57
2024/01/05 06:24:34;;;;;;;7.35;5.70;;;;;;;;;;5001265;28;20057;-55
2024/01/05 06:27:01;;;;;;;7.50;5.53;;;;;;;;;;5016546;28;20025;-55
2024/01/05 06:29:28;;;;;;;7.93;5.47;;;;;;;;;;5005628;28;20033;-57
2024/01/05 06:31:56;;;;;;;8.63;5.88;;;;;;;;;;5005744;28;20022;-57
2024/01/05 06:34:23;;;;;;;6.88;6.00;;;;;;;;;;5005766;28;20046;-57
2024/01/05 06:36:49;;;;;;;8.07;6.05;;;;;;;;;;5005052;28;20026;-54
2024/01/05 06:39:16;;;;;;;6.63;5.88;;;;;;;;;;5015173;28;20168;-55
2024/01/05 06:41:42;;;;;;;6.90;5.57;;;;;;;;;;5003512;28;20030;-54
2024/01/05 06:44:09;;;;;;;7.10;5.63;;;;;;;;;;5023659;28;20032;-57
2024/01/05 06:46:36;;;;;;;5.93;5.32;;;;;;;;;;5025230;28;20025;-58
2024/01/05 06:49:03;;;;;;;6.90;5.72;;;;;;;;;;5025317;28;20028;-57
2024/01/05 06:51:36;;;;;;;7.25;6.10;;;;;;;;;;5024751;28;20222;-59
2024/01/05 06:54:03;;;;;;;6.97;5.88;;;;;;;;;;5024679;28;20026;-55
2024/01/05 06:56:32;;;;;;;6.15;5.45;;;;;;;;;;5025113;28;20364;-55
2024/01/05 06:59:03;;;;;;;8.95;5.82;;;;;;;;;;5015973;28;20025;-57
2024/01/05 07:01:29;;;;;;;6.68;5.68;;;;;;;;;;5009430;28;20035;-56
2024/01/05 07:03:56;;;;;;;6.63;5.40;;;;;;;;;;5005320;28;20026;-58
2024/01/05 07:06:22;;;;;;;8.27;5.88;;;;;;;;;;5005321;28;20069;-58
2024/01/05 07:08:49;;;;;;;7.25;6.10;;;;;;;;;;5004715;28;20060;-58
2024/01/05 07:11:22;;;;;;;8.48;5.90;;;;;;;;;;5005128;28;20037;-57
2024/01/05 07:13:50;;;;;;;5.95;5.32;;;;;;;;;;5005141;28;20025;-57
2024/01/05 07:16:20;;;;;;;10.38;5.95;;;;;;;;;;5005470;28;20018;-56
2024/01/05 07:18:47;;;;;;;7.72;5.85;;;;;;;;;;5005076;28;20077;-56
2024/01/05 07:21:14;;;;;;;9.43;5.63;;;;;;;;;;5004895;28;20026;-56
2024/01/05 07:23:40;;;;;;;7.20;5.78;;;;;;;;;;5004568;28;20337;-54
2024/01/05 07:26:08;;;;;;;6.45;5.85;;;;;;;;;;5005077;28;20034;-54
2024/01/05 07:28:34;;;;;;;7.72;6.07;;;;;;;;;;5004561;28;20030;-54
2024/01/05 07:31:09;;;;;;;6.97;5.45;;;;;;;;;;5004651;28;20131;-56
2024/01/05 07:33:36;;;;;;;6.72;5.50;;;;;;;;;;5004824;28;20027;-54
2024/01/05 07:36:06;;;;;;;9.25;5.30;;;;;;;;;;5004711;28;20266;-56
2024/01/05 07:38:35;;;;;;;7.47;5.47;;;;;;;;;;5004706;28;20027;-55
2024/01/05 07:41:02;;;;;;;6.20;5.43;;;;;;;;;;5004708;28;20344;-57
2024/01/05 07:43:30;;;;;;;10.07;5.90;;;;;;;;;;5004371;28;20385;-58
2024/01/05 07:45:57;;;;;;;6.65;6.00;;;;;;;;;;5004796;28;20329;-55
2024/01/05 07:48:23;;;;;;;6.53;5.50;;;;;;;;;;5004512;28;20026;-54
2024/01/05 07:50:50;;;;;;;6.63;5.47;;;;;;;;;;5004232;28;20022;-53
2024/01/05 07:53:16;;;;;;;6.30;5.47;;;;;;;;;;5004462;28;20030;-55
2024/01/05 07:55:43;;;;;;;6.47;5.63;;;;;;;;;;5004522;28;20298;-56
2024/01/05 07:58:10;;;;;;;6.47;5.60;;;;;;;;;;5004256;28;20210;-54
2024/01/05 08:00:36;;;;;;;7.57;5.70;;;;;;;;;;5004856;28;20323;-56
2024/01/05 08:03:05;;;;;;;6.35;5.75;;;;;;;;;;5004305;28;20389;-54
2024/01/05 08:05:31;;;;;;;6.30;5.63;;;;;;;;;;5004260;28;20029;-57
2024/01/05 08:07:58;;;;;;;7.35;5.55;;;;;;;;;;5004439;28;20026;-53
2024/01/05 08:10:25;;;;;;;5.90;5.40;;;;;;;;;;5004577;28;20022;-56
2024/01/05 08:12:51;;;;;;;6.65;5.80;;;;;;;;;;5004125;28;20030;-53
2024/01/05 08:15:18;;;;;;;5.78;5.18;;;;;;;;;;5004169;28;20085;-54
2024/01/05 08:17:44;;;;;;;7.07;5.63;;;;;;;;;;5004379;28;20026;-54
2024/01/05 08:20:11;;;;;;;7.82;6.13;;;;;;;;;;5004479;28;20014;-55
2024/01/05 08:22:38;;;;;;;9.35;5.80;;;;;;;;;;5003921;28;20026;-55
2024/01/05 08:25:04;;;;;;;7.88;5.63;;;;;;;;;;5004123;28;20050;-54
2024/01/05 08:27:31;;;;;;;7.32;5.40;;;;;;;;;;5004516;28;20031;-55
2024/01/05 08:29:57;;;;;;;7.47;5.90;;;;;;;;;;5004034;28;20030;-56
2024/01/05 08:32:24;;;;;;;7.22;5.70;;;;;;;;;;5004445;28;20034;-56
2024/01/05 08:34:51;;;;;;;6.88;5.28;;;;;;;;;;5004256;28;20250;-57
2024/01/05 08:37:17;;;;;;;6.93;5.32;;;;;;;;;;5004490;28;20230;-56
2024/01/05 08:39:44;;;;;;;9.40;5.82;;;;;;;;;;5003953;28;20117;-54
2024/01/05 08:42:10;;;;;;;6.70;5.82;;;;;;;;;;5004239;28;20033;-56
2024/01/05 08:44:37;;;;;;;6.10;5.20;;;;;;;;;;5003759;28;20024;-57
2024/01/05 08:47:04;;;;;;;23.50;6.20;;;;;;;;;;5004300;28;20026;-57
2024/01/05 08:49:33;;;;;;;7.65;5.32;;;;;;;;;;5003965;28;20084;-54
2024/01/05 08:52:00;;;;;;;8.52;5.20;;;;;;;;;;5006580;28;20069;-58
2024/01/05 08:54:26;;;;;;;10.65;5.65;;;;;;;;;;5007666;28;20069;-55
2024/01/05 08:56:53;;;;;;;7.63;5.50;;;;;;;;;;5007594;28;20085;-54
2024/01/05 08:59:20;;;;;;;17.67;5.68;;;;;;;;;;5007371;28;20019;-59
2024/01/05 09:01:47;;;;;;;7.47;5.68;;;;;;;;;;5007691;28;20077;-53
2024/01/05 09:04:14;;;;;;;7.72;5.85;;;;;;;;;;5013993;28;20030;-53
2024/01/05 09:06:42;;;;;;;6.88;5.70;;;;;;;;;;5011498;28;20085;-53
2024/01/05 09:09:10;;;;;;;10.95;5.55;;;;;;;;;;5014305;28;20105;-56
2024/01/05 09:11:39;;;;;;;7.35;5.78;;;;;;;;;;5007366;28;20041;-57
2024/01/05 09:14:06;;;;;;;9.02;5.60;;;;;;;;;;5007061;28;20310;-56
2024/01/05 09:16:33;;;;;;;8.05;5.50;;;;;;;;;;5007294;28;20073;-56
2024/01/05 09:18:59;;;;;;;8.43;5.95;;;;;;;;;;5015957;28;20029;-56
2024/01/05 09:21:26;;;;;;;7.63;6.00;;;;;;;;;;5025993;28;20022;-55
2024/01/05 09:23:53;;;;;;;6.70;5.10;;;;;;;;;;5010582;28;20242;-55
2024/01/05 09:26:20;;;;;;;6.80;5.20;;;;;;;;;;5007082;28;20306;-57
2024/01/05 09:28:46;;;;;;;7.82;5.65;;;;;;;;;;5006693;28;20377;-56
2024/01/05 09:31:13;;;;;;;8.55;5.68;;;;;;;;;;5015865;28;20033;-56
2024/01/05 09:33:39;;;;;;;9.93;5.75;;;;;;;;;;5026428;28;20052;-56
2024/01/05 09:36:06;;;;;;;13.05;6.00;;;;;;;;;;5026221;28;20076;-57
2024/01/05 09:38:33;;;;;;;8.88;5.28;;;;;;;;;;5026264;28;20048;-53
2024/01/05 09:40:59;;;;;;;10.00;5.97;;;;;;;;;;5017120;28;20018;-55
2024/01/05 09:43:26;;;;;;;14.30;5.88;;;;;;;;;;5006497;28;20018;-55
2024/01/05 09:45:53;;;;;;;10.40;5.70;;;;;;;;;;5006622;28;20084;-53
2024/01/05 09:48:21;;;;;;;7.88;5.13;;;;;;;;;;5006420;28;20089;-60
2024/01/05 09:50:51;;;;;;;11.38;5.40;;;;;;;;;;5015511;28;20021;-59
2024/01/05 09:53:19;;;;;;;9.27;5.45;;;;;;;;;;5025849;28;20026;-57
2024/01/05 09:55:49;;;;;;;11.77;5.72;;;;;;;;;;5025882;28;20245;-54
2024/01/05 09:58:17;;;;;;;8.77;5.43;;;;;;;;;;5025474;28;20068;-56
2024/01/05 10:00:47;;;;;;;18.42;5.95;;;;;;;;;;5025745;28;20074;-56
2024/01/05 10:03:22;;;;;;;10.93;5.40;;;;;;;;;;5025338;28;20022;-54
2024/01/05 10:05:54;;;;;;;10.60;5.57;;;;;;;;;;5025418;28;20028;-54
2024/01/05 10:08:24;;;;;;;8.63;5.30;;;;;;;;;;5008232;28;20029;-56
2024/01/05 10:11:01;;;;;;;11.55;5.72;;;;;;;;;;5025421;28;20021;-56
2024/01/05 10:13:28;;;;;;;13.50;5.25;;;;;;;;;;5025631;28;20033;-54
2024/01/05 10:15:56;;;;;;;10.25;5.80;;;;;;;;;;5025757;28;20018;-57
2024/01/05 10:18:23;;;;;;;7.20;5.15;;;;;;;;;;5025537;28;20018;-55
2024/01/05 10:20:50;;;;;;;8.02;5.10;;;;;;;;;;5025524;28;20020;-55
2024/01/05 10:23:17;;;;;;;12.63;5.18;;;;;;;;;;5025253;28;20045;-54
2024/01/05 10:25:46;;;;;;;9.43;5.60;;;;;;;;;;5025226;28;20333;-55
2024/01/05 10:28:21;;;;;;;8.52;5.05;;;;;;;;;;5025145;28;20072;-56
2024/01/05 10:30:48;;;;;;;11.07;5.15;;;;;;;;;;5025185;28;20037;-55
2024/01/05 10:33:16;;;;;;;7.38;5.07;;;;;;;;;;5025213;28;20034;-54
2024/01/05 10:35:43;;;;;;;9.60;5.88;;;;;;;;;;5025098;28;20028;-54
2024/01/05 10:38:11;;;;;;;8.05;5.38;;;;;;;;;;5024909;28;20048;-55
2024/01/05 10:40:38;;;;;;;12.70;5.65;;;;;;;;;;5007138;28;20039;-54
2024/01/05 10:43:25;;;;;;;9.45;5.50;;;;;;;;;;5005400;28;20344;-57
2024/01/05 10:45:51;;;;;;;11.07;6.05;;;;;;;;;;5005299;28;20030;-55
2024/01/05 10:48:19;;;;;;;13.65;5.90;;;;;;;;;;5005248;28;20053;-56
2024/01/05 10:50:47;;;;;;;21.30;6.47;;;;;;;;;;5005172;28;20129;-57
2024/01/05 10:53:13;;;;;;;21.42;6.40;;;;;;;;;;5005004;28;20109;-58
2024/01/05 10:55:42;;;;;;;20.92;6.38;;;;;;;;;;5005174;28;20154;-58
2024/01/05 10:58:08;;;;;;;11.35;5.97;;;;;;;;;;5005010;28;20038;-59
2024/01/05 11:00:35;;;;;;;17.80;5.93;;;;;;;;;;5005155;28;20046;-58
2024/01/05 11:03:10;;;;;;;15.65;5.60;;;;;;;;;;4988192;28;20218;-58
2024/01/05 11:05:46;;;;;;;13.57;6.00;;;;;;;;;;5005120;28;20047;-57
2024/01/05 11:08:21;;;;;;;16.40;5.95;;;;;;;;;;5005013;28;20026;-56
2024/01/05 11:10:58;;;;;;;11.70;5.85;;;;;;;;;;5004731;28;20022;-57
2024/01/05 11:13:36;;;;;;;16.48;5.85;;;;;;;;;;4994764;28;20206;-57
2024/01/05 11:16:21;;;;;;;14.50;5.70;;;;;;;;;;4987846;28;20029;-55
2024/01/05 11:19:03;;;;;;;15.10;5.97;;;;;;;;;;4989584;28;20026;-57
2024/01/05 11:21:29;;;;;;;;;;;;;;;;;;5005261;28;20057;-56
2024/01/05 11:23:56;;;;;;;15.30;6.15;;;;;;;;;;5004554;28;19918;-55
2024/01/05 11:26:39;;;;;;;10.43;5.72;;;;;;;;;;5004842;28;20301;-56
2024/01/05 11:29:05;;;;;;;;;;;;;;;;;;5005173;28;20218;-56
2024/01/05 11:31:46;;;;;;;10.57;6.28;;;;;;;;;;5004862;28;19936;-51
2024/01/05 11:34:42;;;;;;;13.97;6.50;;;;;;;;;;5004582;28;20084;-58
2024/01/05 11:37:09;;;;;;;13.82;6.15;;;;;;;;;;4983392;28;20090;-57
2024/01/05 11:39:49;;;;;;;21.10;6.95;;;;;;;;;;4995934;28;20322;-55
2024/01/05 11:42:24;;;;;;;20.20;6.40;;;;;;;;;;4985415;28;20031;-55
2024/01/05 11:44:53;;;;;;;55.05;9.55;;;;;;;;;;5003144;28;20060;-55
2024/01/05 11:47:39;;;;;;;29.08;7.03;;;;;;;;;;5004937;28;20076;-57
2024/01/05 11:50:26;;;;;;;20.80;7.43;;;;;;;;;;4999382;28;20031;-55
2024/01/05 11:53:07;;;;;;;19.27;7.13;;;;;;;;;;4984671;28;20033;-53
2024/01/05 11:55:40;;;;;;;25.83;8.10;;;;;;;;;;4984884;28;20019;-55
2024/01/05 11:58:12;;;;;;;19.67;7.10;;;;;;;;;;4984866;28;20443;-56
2024/01/05 12:00:44;;;;;;;23.33;7.78;;;;;;;;;;4985007;28;20774;-56
2024/01/05 12:03:11;;;;;;;22.30;7.47;;;;;;;;;;4984785;28;20019;-55
2024/01/05 12:05:40;;;;;;;17.38;6.85;;;;;;;;;;4984710;28;20074;-56
2024/01/05 12:08:11;;;;;;;13.90;6.32;;;;;;;;;;4997445;28;20022;-53
2024/01/05 12:10:39;;;;;;;19.63;6.90;;;;;;;;;;5001943;28;20046;-54
2024/01/05 12:13:06;;;;;;;22.38;7.00;;;;;;;;;;5003329;28;20085;-54
2024/01/05 12:15:33;;;;;;;20.40;6.93;;;;;;;;;;4983555;28;20254;-54
2024/01/05 12:18:09;;;;;;;16.15;6.53;;;;;;;;;;5003948;28;20022;-53
2024/01/05 12:20:35;;;;;;;19.45;6.65;;;;;;;;;;5003991;28;20401;-58
2024/01/05 12:23:03;;;;;;;17.33;6.47;;;;;;;;;;5004211;28;20214;-55
2024/01/05 12:25:31;;;;;;;15.95;6.20;;;;;;;;;;5005745;28;20042;-60
2024/01/05 12:27:58;;;;;;;15.70;6.47;;;;;;;;;;5006794;28;20065;-57
2024/01/05 12:30:26;;;;;;;12.05;6.38;;;;;;;;;;4988348;28;20022;-58
2024/01/05 12:32:54;;;;;;;9.52;5.93;;;;;;;;;;4988173;28;20370;-57
2024/01/05 12:35:20;;;;;;;12.38;6.65;;;;;;;;;;4989456;28;20271;-54
2024/01/05 12:37:52;;;;;;;12.32;6.28;;;;;;;;;;5004513;28;20086;-54
2024/01/05 12:40:23;;;;;;;17.95;7.28;;;;;;;;;;4991079;28;20063;-52
2024/01/05 12:42:51;;;;;;;36.55;8.05;;;;;;;;;;4999372;28;20034;-53
2024/01/05 12:45:18;;;;;;;25.38;7.28;;;;;;;;;;5007030;28;20025;-55
2024/01/05 12:47:44;;;;;;;26.33;6.95;;;;;;;;;;4999384;28;20031;-53
2024/01/05 12:50:27;;;;;;;22.20;6.90;;;;;;;;;;5007522;28;20025;-54
2024/01/05 12:52:54;;;;;;;19.80;6.85;;;;;;;;;;5007279;28;20030;-59
2024/01/05 12:55:27;;;;;;;15.18;6.95;;;;;;;;;;4999432;28;20400;-56
2024/01/05 12:57:54;;;;;;;16.55;6.63;;;;;;;;;;4987997;28;20034;-57
2024/01/05 13:00:22;;;;;;;11.68;6.43;;;;;;;;;;4987644;28;20047;-55
2024/01/05 13:02:48;;;;;;;17.00;6.78;;;;;;;;;;4987922;28;20023;-55
2024/01/05 13:05:28;;;;;;;13.95;6.55;;;;;;;;;;4987848;28;20306;-53
2024/01/05 13:07:55;;;;;;;10.88;6.97;;;;;;;;;;4987490;28;20039;-50
2024/01/05 13:10:22;;;;;;;30.90;6.88;;;;;;;;;;4987663;28;20030;-53
2024/01/05 13:12:49;;;;;;;23.42;6.60;;;;;;;;;;5005734;28;20226;-55
2024/01/05 13:15:16;;;;;;;16.35;6.30;;;;;;;;;;5006859;28;20022;-58
2024/01/05 13:17:49;;;;;;;13.50;6.63;;;;;;;;;;5007612;28;20085;-61
2024/01/05 13:20:22;;;;;;;14.60;6.95;;;;;;;;;;5006832;28;20071;-54
2024/01/05 13:22:55;;;;;;;14.60;5.82;;;;;;;;;;5007097;28;20229;-56
2024/01/05 13:25:22;;;;;;;19.13;6.30;;;;;;;;;;5006568;28;20358;-52
2024/01/05 13:27:48;;;;;;;19.60;6.60;;;;;;;;;;5006614;28;20051;-52
2024/01/05 13:30:15;;;;;;;18.05;6.85;;;;;;;;;;4999612;28;20023;-54
2024/01/05 13:32:46;;;;;;;18.55;6.20;;;;;;;;;;5005607;28;20030;-54
2024/01/05 13:35:13;;;;;;;18.75;6.75;;;;;;;;;;4995211;28;20026;-52
2024/01/05 13:37:40;;;;;;;15.95;6.70;;;;;;;;;;4994292;28;20068;-55
2024/01/05 13:40:07;;;;;;;14.63;5.93;;;;;;;;;;4989141;28;20321;-53
2024/01/05 13:42:33;;;;;;;19.52;6.38;;;;;;;;;;5005801;28;20030;-48
2024/01/05 13:45:06;;;;;;;12.40;6.03;;;;;;;;;;5006558;28;20270;-56
2024/01/05 13:47:36;;;;;;;14.85;5.97;;;;;;;;;;5006886;28;20030;-52
2024/01/05 13:50:03;;;;;;;19.75;6.57;;;;;;;;;;5006600;28;20030;-58
2024/01/05 13:52:30;;;;;;;18.67;6.32;;;;;;;;;;5006596;28;20030;-55
2024/01/05 13:54:56;;;;;;;31.52;7.20;;;;;;;;;;5006238;28;20045;-57
2024/01/05 13:57:23;;;;;;;35.75;6.93;;;;;;;;;;5004608;28;20362;-56
2024/01/05 13:59:50;;;;;;;31.58;6.95;;;;;;;;;;5006834;28;20376;-53
2024/01/05 14:02:18;;;;;;;24.08;7.28;;;;;;;;;;5024885;28;20076;-57
2024/01/05 14:04:45;;;;;;;13.63;6.47;;;;;;;;;;5006179;28;20037;-57
2024/01/05 14:07:12;;;;;;;24.20;6.40;;;;;;;;;;5005801;28;20049;-53
2024/01/05 14:09:38;;;;;;;10.32;5.72;;;;;;;;;;4996628;28;20322;-55
2024/01/05 14:12:06;;;;;;;13.05;5.88;;;;;;;;;;4999397;28;20030;-52
2024/01/05 14:14:33;;;;;;;25.70;7.18;;;;;;;;;;4997546;28;20026;-53
2024/01/05 14:17:00;;;;;;;24.20;6.65;;;;;;;;;;4992434;28;20022;-53
2024/01/05 14:19:27;;;;;;;24.58;6.45;;;;;;;;;;4997424;28;20242;-58
2024/01/05 14:21:53;;;;;;;27.35;6.80;;;;;;;;;;4996039;28;20076;-54
2024/01/05 14:24:20;;;;;;;18.63;6.72;;;;;;;;;;4993754;28;20054;-57
2024/01/05 14:26:47;;;;;;;21.63;6.88;;;;;;;;;;4991793;28;20031;-53
2024/01/05 14:29:18;;;;;;;19.65;5.75;;;;;;;;;;4986462;28;20218;-55
2024/01/05 14:31:45;;;;;;;21.13;5.93;;;;;;;;;;4986845;28;20026;-53
2024/01/05 14:34:12;;;;;;;24.17;6.70;;;;;;;;;;4997310;28;20045;-55
2024/01/05 14:36:39;;;;;;;16.75;6.75;;;;;;;;;;4992511;28;20081;-54
2024/01/05 14:39:06;;;;;;;18.08;6.18;;;;;;;;;;4994040;28;20022;-56